SNJ86 ROAH-RJFK
Flight info
| Callsign | SNJ86 |
|---|---|
| Flight time | N/A |
| Altitude | 37000 |
| Route | AMAMI Y25 BOMAP Y455 KINKO |
| Aircraft | B738/M-SDE2E3FGHIRWXY/LB1 |
Departure
| Time | 2026-04-27 11:36 |
|---|---|
| Airport | Naha International Airport (ROAH) |
Arrival
| Time | N/A |
|---|---|
| Airport | Kagoshima Airport (RJFK) |
| Time | Latitude | Longitude | Altitude | Speed | Heading |
|---|---|---|---|---|---|
| 2026-04-27 11:18 | 26.20724 | 127.64857 | 20 ft | 0 kts | 47° |
| 2026-04-27 11:22 | 26.20724 | 127.64856 | 20 ft | 1 kts | 47° |
| 2026-04-27 11:22 | 26.20707 | 127.64836 | 20 ft | 4 kts | 46° |
| 2026-04-27 11:22 | 26.20690 | 127.64819 | 20 ft | 3 kts | 37° |
| 2026-04-27 11:22 | 26.20671 | 127.64799 | 19 ft | 4 kts | 60° |
| 2026-04-27 11:23 | 26.20665 | 127.64773 | 17 ft | 4 kts | 108° |
| 2026-04-27 11:23 | 26.20680 | 127.64751 | 19 ft | 4 kts | 149° |
| 2026-04-27 11:23 | 26.20705 | 127.64741 | 18 ft | 4 kts | 176° |
| 2026-04-27 11:23 | 26.20729 | 127.64740 | 18 ft | 2 kts | 177° |
| 2026-04-27 11:24 | 26.20730 | 127.64740 | 18 ft | 1 kts | 177° |
| 2026-04-27 11:26 | 26.20727 | 127.64740 | 16 ft | 2 kts | 177° |
| 2026-04-27 11:27 | 26.20708 | 127.64741 | 17 ft | 4 kts | 178° |
| 2026-04-27 11:27 | 26.20667 | 127.64743 | 18 ft | 8 kts | 178° |
| 2026-04-27 11:27 | 26.20601 | 127.64746 | 16 ft | 11 kts | 177° |
| 2026-04-27 11:27 | 26.20515 | 127.64750 | 17 ft | 14 kts | 177° |
| 2026-04-27 11:28 | 26.20407 | 127.64755 | 17 ft | 18 kts | 178° |
| 2026-04-27 11:28 | 26.20255 | 127.64762 | 16 ft | 24 kts | 177° |
| 2026-04-27 11:28 | 26.20090 | 127.64770 | 16 ft | 23 kts | 178° |
| 2026-04-27 11:28 | 26.19935 | 127.64777 | 16 ft | 21 kts | 177° |
| 2026-04-27 11:29 | 26.19793 | 127.64784 | 16 ft | 19 kts | 178° |
| 2026-04-27 11:29 | 26.19655 | 127.64791 | 16 ft | 20 kts | 178° |
| 2026-04-27 11:29 | 26.19510 | 127.64797 | 16 ft | 22 kts | 177° |
| 2026-04-27 11:29 | 26.19369 | 127.64804 | 16 ft | 19 kts | 178° |
| 2026-04-27 11:30 | 26.19234 | 127.64810 | 16 ft | 20 kts | 177° |
| 2026-04-27 11:30 | 26.19102 | 127.64817 | 16 ft | 18 kts | 178° |
| 2026-04-27 11:30 | 26.18973 | 127.64823 | 16 ft | 19 kts | 177° |
| 2026-04-27 11:30 | 26.18833 | 127.64829 | 16 ft | 20 kts | 177° |
| 2026-04-27 11:31 | 26.18688 | 127.64836 | 16 ft | 21 kts | 178° |
| 2026-04-27 11:31 | 26.18538 | 127.64843 | 16 ft | 22 kts | 178° |
| 2026-04-27 11:31 | 26.18408 | 127.64849 | 16 ft | 19 kts | 178° |
| 2026-04-27 11:31 | 26.18292 | 127.64853 | 16 ft | 9 kts | 186° |
| 2026-04-27 11:32 | 26.18244 | 127.64808 | 16 ft | 10 kts | 259° |
| 2026-04-27 11:32 | 26.18242 | 127.64758 | 15 ft | 0 kts | 267° |
| 2026-04-27 11:34 | 26.18242 | 127.64754 | 15 ft | 2 kts | 267° |
| 2026-04-27 11:34 | 26.18241 | 127.64723 | 15 ft | 6 kts | 267° |
| 2026-04-27 11:34 | 26.18255 | 127.64667 | 15 ft | 9 kts | 308° |
| 2026-04-27 11:35 | 26.18313 | 127.64647 | 16 ft | 9 kts | 358° |
| 2026-04-27 11:35 | 26.18389 | 127.64644 | 16 ft | 44 kts | 358° |
| 2026-04-27 11:35 | 26.19049 | 127.64610 | 18 ft | 143 kts | 358° |
| 2026-04-27 11:35 | 26.20274 | 127.64536 | 449 ft | 194 kts | 357° |
| 2026-04-27 11:36 | 26.21619 | 127.64455 | 1901 ft | 186 kts | 358° |
| 2026-04-27 11:36 | 26.22929 | 127.64407 | 3094 ft | 195 kts | 358° |
| 2026-04-27 11:36 | 26.24381 | 127.64357 | 3508 ft | 225 kts | 357° |
| 2026-04-27 11:36 | 26.25965 | 127.64079 | 4116 ft | 236 kts | 337° |
| 2026-04-27 11:37 | 26.27430 | 127.63210 | 4902 ft | 242 kts | 329° |
| 2026-04-27 11:37 | 26.28884 | 127.62275 | 5604 ft | 254 kts | 328° |
| 2026-04-27 11:37 | 26.30471 | 127.61251 | 6297 ft | 270 kts | 328° |
| 2026-04-27 11:37 | 26.32110 | 127.60198 | 7307 ft | 273 kts | 328° |
| 2026-04-27 11:38 | 26.33762 | 127.59142 | 8338 ft | 276 kts | 328° |
| 2026-04-27 11:38 | 26.35449 | 127.58067 | 9342 ft | 281 kts | 328° |
| 2026-04-27 11:38 | 26.37158 | 127.56979 | 10303 ft | 286 kts | 328° |
| 2026-04-27 11:38 | 26.38950 | 127.55837 | 10756 ft | 311 kts | 328° |
| 2026-04-27 11:39 | 26.40904 | 127.54592 | 11098 ft | 333 kts | 328° |
| 2026-04-27 11:39 | 26.43092 | 127.53637 | 11830 ft | 346 kts | 347° |
| 2026-04-27 11:39 | 26.45521 | 127.53610 | 12723 ft | 355 kts | 7° |
| 2026-04-27 11:39 | 26.47904 | 127.54405 | 13601 ft | 362 kts | 15° |
| 2026-04-27 11:40 | 26.50303 | 127.55390 | 14324 ft | 369 kts | 17° |
| 2026-04-27 11:40 | 26.52719 | 127.56430 | 15027 ft | 374 kts | 18° |
| 2026-04-27 11:40 | 26.55167 | 127.57490 | 15796 ft | 378 kts | 17° |
| 2026-04-27 11:40 | 26.57636 | 127.58549 | 16536 ft | 382 kts | 17° |
| 2026-04-27 11:41 | 26.60141 | 127.59611 | 17256 ft | 387 kts | 17° |
| 2026-04-27 11:41 | 26.62672 | 127.60675 | 17959 ft | 392 kts | 17° |
| 2026-04-27 11:41 | 26.65004 | 127.61649 | 18553 ft | 396 kts | 17° |
| 2026-04-27 11:41 | 26.67600 | 127.62731 | 19179 ft | 400 kts | 16° |